Time;durP1;ratioP1;P1;durP2;ratioP2;P2;SDS_P1;SDS_P2;PMS_P1;PMS_P2;Temp;Humidity;BMP_temperature;BMP_pressure;BME280_temperature;BME280_humidity;BME280_pressure;Samples;Min_cycle;Max_cycle;Signal;HPM_P1;HPM_P2
2023/01/21 00:01:25;;;;;;;32.77;12.87;;;;;;;;;;5014633;28;20022;-89
2023/01/21 00:03:50;;;;;;;31.87;13.00;;;;;;;;;;4997044;28;20080;-89
2023/01/21 00:06:16;;;;;;;32.60;13.53;;;;;;;;;;5013521;28;20061;-89
2023/01/21 00:08:41;;;;;;;36.97;15.10;;;;;;;;;;4997133;28;20028;-88
2023/01/21 00:11:07;;;;;;;30.93;12.97;;;;;;;;;;5013946;28;20018;-88
2023/01/21 00:13:35;;;;;;;29.50;12.03;;;;;;;;;;4996164;28;20026;-89
2023/01/21 00:16:01;;;;;;;34.70;14.30;;;;;;;;;;5014819;28;20062;-89
2023/01/21 00:18:28;;;;;;;35.77;14.37;;;;;;;;;;4997094;28;20026;-89
2023/01/21 00:20:53;;;;;;;31.17;12.37;;;;;;;;;;4996792;28;20026;-88
2023/01/21 00:23:19;;;;;;;36.63;14.53;;;;;;;;;;4996296;28;20040;-89
2023/01/21 00:25:44;;;;;;;31.23;14.03;;;;;;;;;;5014308;28;20145;-89
2023/01/21 00:28:09;;;;;;;40.20;13.40;;;;;;;;;;5014295;28;20018;-87
2023/01/21 00:30:35;;;;;;;34.87;14.27;;;;;;;;;;4996404;28;20335;-89
2023/01/21 00:33:00;;;;;;;33.47;14.37;;;;;;;;;;4996467;28;20025;-89
2023/01/21 00:35:26;;;;;;;36.53;13.77;;;;;;;;;;5013115;28;20343;-88
2023/01/21 00:37:51;;;;;;;35.90;14.90;;;;;;;;;;5012963;28;20026;-88
2023/01/21 00:40:16;;;;;;;37.63;14.97;;;;;;;;;;5013941;28;20026;-89
2023/01/21 00:42:42;;;;;;;30.50;11.67;;;;;;;;;;4996697;28;20014;-87
2023/01/21 00:45:07;;;;;;;30.77;12.77;;;;;;;;;;5012661;28;20014;-89
2023/01/21 00:47:32;;;;;;;31.03;12.23;;;;;;;;;;5013288;28;20018;-88
2023/01/21 00:49:58;;;;;;;32.00;13.07;;;;;;;;;;4995579;28;20030;-89
2023/01/21 00:52:23;;;;;;;35.67;13.80;;;;;;;;;;5014079;28;20021;-89
2023/01/21 00:54:48;;;;;;;37.27;15.47;;;;;;;;;;4995317;28;20025;-89
2023/01/21 00:57:13;;;;;;;38.13;14.07;;;;;;;;;;5014038;28;20105;-89
2023/01/21 00:59:39;;;;;;;34.50;14.13;;;;;;;;;;4995253;28;20080;-89
2023/01/21 01:02:04;;;;;;;36.77;15.57;;;;;;;;;;4996204;28;20071;-88
2023/01/21 01:04:29;;;;;;;46.40;16.30;;;;;;;;;;5012470;28;20488;-88
2023/01/21 01:06:54;;;;;;;43.03;15.73;;;;;;;;;;5013956;28;20018;-88
2023/01/21 01:09:19;;;;;;;38.43;15.47;;;;;;;;;;4995471;28;20022;-89
2023/01/21 01:11:45;;;;;;;41.77;16.90;;;;;;;;;;5012777;28;20026;-88
2023/01/21 01:14:10;;;;;;;40.97;16.23;;;;;;;;;;4995642;28;20515;-88
2023/01/21 01:16:38;;;;;;;44.17;16.80;;;;;;;;;;4995695;28;20057;-88
2023/01/21 01:19:03;;;;;;;38.73;15.10;;;;;;;;;;5013067;28;20018;-87
2023/01/21 01:21:28;;;;;;;39.03;15.57;;;;;;;;;;4995851;28;20532;-88
2023/01/21 01:23:54;;;;;;;41.57;15.43;;;;;;;;;;5011066;28;20021;-88
2023/01/21 01:26:20;;;;;;;38.53;15.60;;;;;;;;;;5010522;28;20017;-87
2023/01/21 01:28:45;;;;;;;38.17;16.23;;;;;;;;;;5012789;28;20597;-88
2023/01/21 01:31:12;;;;;;;39.27;15.37;;;;;;;;;;4995266;28;20026;-88
2023/01/21 01:33:37;;;;;;;43.87;16.20;;;;;;;;;;4995703;28;20084;-87
2023/01/21 01:36:13;;;;;;;36.93;15.43;;;;;;;;;;5012116;28;20033;-88
2023/01/21 01:38:38;;;;;;;38.37;15.90;;;;;;;;;;4995124;28;20018;-88
2023/01/21 01:41:03;;;;;;;41.67;16.27;;;;;;;;;;4994992;28;20029;-87
2023/01/21 01:43:47;;;;;;;44.63;16.20;;;;;;;;;;5011108;28;20033;-88
2023/01/21 01:46:13;;;;;;;42.50;15.07;;;;;;;;;;4994576;28;20024;-88
2023/01/21 01:48:38;;;;;;;44.33;16.53;;;;;;;;;;4994946;28;20456;-88
2023/01/21 01:51:06;;;;;;;39.53;16.93;;;;;;;;;;5012826;28;20018;-88
2023/01/21 01:53:32;;;;;;;41.20;15.40;;;;;;;;;;4994992;28;20350;-88
2023/01/21 01:55:57;;;;;;;50.87;18.07;;;;;;;;;;4994601;28;20184;-88
2023/01/21 01:58:23;;;;;;;43.10;17.07;;;;;;;;;;4993351;28;20018;-87
2023/01/21 02:00:48;;;;;;;39.40;16.10;;;;;;;;;;4994792;28;20105;-88
2023/01/21 02:06:17;;;;;;;43.47;16.40;;;;;;;;;;4952033;29;20019;-88
2023/01/21 02:08:43;;;;;;;45.33;17.10;;;;;;;;;;4951877;29;20027;-88
2023/01/21 02:11:12;;;;;;;42.63;17.83;;;;;;;;;;4973153;28;20044;-88
2023/01/21 02:13:37;;;;;;;49.47;16.93;;;;;;;;;;5012366;28;20029;-88
2023/01/21 02:16:23;;;;;;;43.80;16.60;;;;;;;;;;4994611;28;20028;-88
2023/01/21 02:18:48;;;;;;;43.97;16.60;;;;;;;;;;4953665;28;20036;-88
2023/01/21 02:21:19;;;;;;;49.40;18.27;;;;;;;;;;5011850;28;20453;-88
2023/01/21 02:24:03;;;;;;;46.50;17.83;;;;;;;;;;4993192;28;20120;-87
2023/01/21 02:26:34;;;;;;;44.67;18.13;;;;;;;;;;4990701;28;20053;-88
2023/01/21 02:29:20;;;;;;;43.03;15.90;;;;;;;;;;5011115;28;20021;-87
2023/01/21 02:31:48;;;;;;;51.00;17.47;;;;;;;;;;4994876;28;20025;-88
2023/01/21 02:34:18;;;;;;;46.70;18.60;;;;;;;;;;4993955;28;20022;-88
2023/01/21 02:37:02;;;;;;;49.17;18.70;;;;;;;;;;4995915;28;20018;-88
2023/01/21 02:39:30;;;;;;;41.40;15.97;;;;;;;;;;5003948;28;20030;-88
2023/01/21 02:42:02;;;;;;;48.80;18.67;;;;;;;;;;4998818;28;20034;-88
2023/01/21 02:44:37;;;;;;;45.75;17.40;;;;;;;;;;4985421;28;20071;-88
2023/01/21 02:47:13;;;;;;;50.43;17.03;;;;;;;;;;5015474;28;20109;-88
2023/01/21 02:49:39;;;;;;;48.70;18.40;;;;;;;;;;5002279;28;20035;-88
2023/01/21 02:52:05;;;;;;;46.23;16.93;;;;;;;;;;5016583;28;20026;-88
2023/01/21 02:54:39;;;;;;;49.83;18.40;;;;;;;;;;4998255;28;20029;-88
2023/01/21 02:57:05;;;;;;;46.87;16.67;;;;;;;;;;5016223;28;20025;-88
2023/01/21 02:59:30;;;;;;;49.63;18.13;;;;;;;;;;4997312;28;20385;-88
2023/01/21 03:02:02;;;;;;;47.07;19.00;;;;;;;;;;4998353;28;20446;-88
2023/01/21 03:04:27;;;;;;;46.70;17.30;;;;;;;;;;5015811;28;20077;-88
2023/01/21 03:06:52;;;;;;;50.30;19.07;;;;;;;;;;4998291;28;20042;-87
2023/01/21 03:09:27;;;;;;;45.17;17.43;;;;;;;;;;4997920;28;20029;-88
2023/01/21 03:12:00;;;;;;;46.53;17.57;;;;;;;;;;5014390;28;20397;-88
2023/01/21 03:17:29;;;;;;;50.43;18.30;;;;;;;;;;5015993;28;19917;-86
2023/01/21 03:20:14;;;;;;;50.80;17.83;;;;;;;;;;4997284;28;20109;-88
2023/01/21 03:22:40;;;;;;;51.00;18.03;;;;;;;;;;4979097;28;20026;-87
2023/01/21 03:25:07;;;;;;;48.10;17.03;;;;;;;;;;4996560;28;20010;-88
2023/01/21 03:27:33;;;;;;;57.57;19.23;;;;;;;;;;4997582;28;20693;-88
2023/01/21 03:30:04;;;;;;;48.67;18.73;;;;;;;;;;4997845;28;20552;-88
2023/01/21 03:32:31;;;;;;;43.80;15.57;;;;;;;;;;4997854;28;20358;-88
2023/01/21 03:34:58;;;;;;;58.63;18.30;;;;;;;;;;4995376;28;20759;-87
2023/01/21 03:37:32;;;;;;;52.13;19.67;;;;;;;;;;4997758;28;20033;-88
2023/01/21 03:40:03;;;;;;;50.80;18.30;;;;;;;;;;5014009;28;20040;-87
2023/01/21 03:42:28;;;;;;;48.93;19.17;;;;;;;;;;5015522;28;20073;-87
2023/01/21 03:44:53;;;;;;;47.53;15.93;;;;;;;;;;4993210;28;20108;-87
2023/01/21 03:47:28;;;;;;;46.83;16.77;;;;;;;;;;4995796;28;20342;-87
2023/01/21 03:49:57;;;;;;;45.10;17.60;;;;;;;;;;5012900;28;20072;-88
2023/01/21 03:52:23;;;;;;;47.77;17.87;;;;;;;;;;4997079;28;20022;-87
2023/01/21 03:54:48;;;;;;;51.63;20.03;;;;;;;;;;5013799;28;20022;-88
2023/01/21 03:57:14;;;;;;;44.70;16.77;;;;;;;;;;5014707;28;20028;-87
2023/01/21 03:59:39;;;;;;;51.23;19.23;;;;;;;;;;4996297;28;20030;-88
2023/01/21 04:02:04;;;;;;;49.17;19.40;;;;;;;;;;5014592;28;20022;-87
2023/01/21 04:04:29;;;;;;;55.07;19.17;;;;;;;;;;5014359;28;20437;-88
2023/01/21 04:06:54;;;;;;;52.33;19.13;;;;;;;;;;4996851;28;20488;-87
2023/01/21 04:09:20;;;;;;;54.27;19.63;;;;;;;;;;4995600;28;20046;-88
2023/01/21 04:11:45;;;;;;;53.57;19.23;;;;;;;;;;4996936;28;20389;-87
2023/01/21 04:14:10;;;;;;;48.60;19.17;;;;;;;;;;4996723;28;20061;-87
2023/01/21 04:16:35;;;;;;;56.20;20.17;;;;;;;;;;4996727;28;20026;-88
2023/01/21 04:19:01;;;;;;;53.60;18.97;;;;;;;;;;5014521;28;20017;-88
2023/01/21 04:21:26;;;;;;;58.00;21.37;;;;;;;;;;5013181;28;20030;-87
2023/01/21 04:23:51;;;;;;;60.70;19.63;;;;;;;;;;4996506;28;20017;-87
2023/01/21 04:26:16;;;;;;;55.57;18.50;;;;;;;;;;5014342;28;20029;-87
2023/01/21 04:28:41;;;;;;;57.93;19.50;;;;;;;;;;5014229;28;20020;-88
2023/01/21 04:31:07;;;;;;;55.03;18.67;;;;;;;;;;4996270;28;20029;-87
2023/01/21 04:33:32;;;;;;;51.27;19.33;;;;;;;;;;4995220;28;20136;-87
2023/01/21 04:35:58;;;;;;;55.43;20.17;;;;;;;;;;4996616;28;20404;-87
2023/01/21 04:38:23;;;;;;;53.17;19.33;;;;;;;;;;4995792;28;20030;-86
2023/01/21 04:40:48;;;;;;;51.73;18.83;;;;;;;;;;4995947;28;20034;-88
2023/01/21 04:43:14;;;;;;;56.53;20.23;;;;;;;;;;5013873;28;20433;-88
2023/01/21 04:45:39;;;;;;;52.27;20.40;;;;;;;;;;4995392;28;20025;-88
2023/01/21 04:48:04;;;;;;;53.13;20.50;;;;;;;;;;5014136;28;20085;-88
2023/01/21 04:50:29;;;;;;;51.77;20.30;;;;;;;;;;5013393;28;20575;-88
2023/01/21 04:52:54;;;;;;;64.87;21.20;;;;;;;;;;5013900;28;20014;-88
2023/01/21 04:55:20;;;;;;;54.03;19.20;;;;;;;;;;4995716;28;20026;-88
2023/01/21 04:57:45;;;;;;;49.10;19.00;;;;;;;;;;4994925;28;20026;-87
2023/01/21 05:00:10;;;;;;;55.93;20.40;;;;;;;;;;4995575;28;20037;-88
2023/01/21 05:02:35;;;;;;;62.63;22.27;;;;;;;;;;5012951;28;20575;-88
2023/01/21 05:05:01;;;;;;;51.67;18.83;;;;;;;;;;5013142;28;20022;-86
2023/01/21 05:07:26;;;;;;;58.53;21.17;;;;;;;;;;4995416;28;20026;-87
2023/01/21 05:09:51;;;;;;;61.40;22.50;;;;;;;;;;4994733;28;20205;-88
2023/01/21 05:12:16;;;;;;;60.03;21.50;;;;;;;;;;4996042;28;20029;-87
2023/01/21 05:14:42;;;;;;;54.57;21.07;;;;;;;;;;4995581;28;20025;-87
2023/01/21 05:17:07;;;;;;;54.17;19.83;;;;;;;;;;4995449;28;20095;-87
2023/01/21 05:19:32;;;;;;;59.27;21.40;;;;;;;;;;4994883;28;20014;-87
2023/01/21 05:21:57;;;;;;;49.40;20.97;;;;;;;;;;4994333;28;20022;-88
2023/01/21 05:24:22;;;;;;;68.90;24.43;;;;;;;;;;4994768;28;20033;-88
2023/01/21 05:26:48;;;;;;;58.87;21.00;;;;;;;;;;4995479;28;20018;-88
2023/01/21 05:29:15;;;;;;;58.93;20.73;;;;;;;;;;4994763;28;20018;-87
2023/01/21 05:31:40;;;;;;;63.87;21.43;;;;;;;;;;4995217;28;20021;-88
2023/01/21 05:34:05;;;;;;;51.90;19.20;;;;;;;;;;4994185;28;20028;-87
2023/01/21 05:36:30;;;;;;;50.77;19.90;;;;;;;;;;5013272;28;20030;-88
2023/01/21 05:38:57;;;;;;;53.20;20.80;;;;;;;;;;5012456;28;20026;-88
2023/01/21 05:41:22;;;;;;;59.53;21.30;;;;;;;;;;5012651;28;20030;-88
2023/01/21 05:43:47;;;;;;;44.20;17.20;;;;;;;;;;5012185;28;20018;-88
2023/01/21 05:46:12;;;;;;;54.60;20.77;;;;;;;;;;4994487;28;20025;-88
2023/01/21 05:48:38;;;;;;;56.03;21.03;;;;;;;;;;5012299;28;20075;-88
2023/01/21 05:51:03;;;;;;;57.90;20.50;;;;;;;;;;4995093;28;20506;-88
2023/01/21 05:53:28;;;;;;;57.70;21.50;;;;;;;;;;4994867;28;20033;-88
2023/01/21 05:55:54;;;;;;;57.37;21.83;;;;;;;;;;5012255;28;20033;-88
2023/01/21 05:58:20;;;;;;;66.10;22.50;;;;;;;;;;5011413;28;20040;-88
2023/01/21 06:00:47;;;;;;;60.00;22.33;;;;;;;;;;4994570;28;20105;-87
2023/01/21 06:03:12;;;;;;;58.00;21.77;;;;;;;;;;5012432;28;20018;-88
2023/01/21 06:05:37;;;;;;;69.57;23.83;;;;;;;;;;5012178;28;20033;-87
2023/01/21 06:08:02;;;;;;;61.97;21.33;;;;;;;;;;5012291;28;20141;-87
2023/01/21 06:10:28;;;;;;;65.90;20.93;;;;;;;;;;4993900;28;20121;-88
2023/01/21 06:12:53;;;;;;;64.87;22.60;;;;;;;;;;4993627;28;20449;-88
2023/01/21 06:15:18;;;;;;;64.67;21.07;;;;;;;;;;5012151;28;20024;-88
2023/01/21 06:17:43;;;;;;;60.13;23.03;;;;;;;;;;4994933;28;20072;-88
2023/01/21 06:20:09;;;;;;;59.37;23.80;;;;;;;;;;5012199;28;20465;-88
2023/01/21 06:22:34;;;;;;;66.83;23.37;;;;;;;;;;4994206;28;20026;-88
2023/01/21 06:24:59;;;;;;;64.23;21.83;;;;;;;;;;4993890;28;20045;-88
2023/01/21 06:27:24;;;;;;;58.20;20.77;;;;;;;;;;5012218;28;20021;-88
2023/01/21 06:29:50;;;;;;;58.93;22.63;;;;;;;;;;4994270;28;20022;-88
2023/01/21 06:32:15;;;;;;;69.33;23.67;;;;;;;;;;5012823;28;20048;-88
2023/01/21 06:34:40;;;;;;;61.13;22.43;;;;;;;;;;5011142;28;20034;-88
2023/01/21 06:37:05;;;;;;;65.53;21.50;;;;;;;;;;4994291;28;20121;-88
2023/01/21 06:39:30;;;;;;;65.47;22.30;;;;;;;;;;4994136;28;20041;-88
2023/01/21 06:41:56;;;;;;;60.27;22.37;;;;;;;;;;4994576;28;20028;-88
2023/01/21 06:44:21;;;;;;;65.87;24.77;;;;;;;;;;5011361;28;20032;-88
2023/01/21 06:46:46;;;;;;;72.93;25.07;;;;;;;;;;5009856;28;20029;-87
2023/01/21 06:49:12;;;;;;;56.10;22.23;;;;;;;;;;4993966;28;20013;-87
2023/01/21 06:51:37;;;;;;;67.73;22.27;;;;;;;;;;4994417;28;20022;-88
2023/01/21 06:54:02;;;;;;;72.77;24.83;;;;;;;;;;4994369;28;20044;-87
2023/01/21 06:56:27;;;;;;;65.80;22.83;;;;;;;;;;4994268;28;20503;-87
2023/01/21 06:58:52;;;;;;;65.43;22.90;;;;;;;;;;5011276;28;20322;-88
2023/01/21 07:01:18;;;;;;;58.57;22.87;;;;;;;;;;5011811;28;20030;-88
2023/01/21 07:03:43;;;;;;;60.23;22.30;;;;;;;;;;4994457;28;20485;-87
2023/01/21 07:06:08;;;;;;;69.23;23.13;;;;;;;;;;4994245;28;20044;-88
2023/01/21 07:08:33;;;;;;;62.00;22.63;;;;;;;;;;4994160;28;20041;-88
2023/01/21 07:10:59;;;;;;;60.30;21.90;;;;;;;;;;4998022;28;20113;-88
2023/01/21 07:13:24;;;;;;;64.17;23.67;;;;;;;;;;4993642;28;20017;-87
2023/01/21 07:15:49;;;;;;;68.50;24.27;;;;;;;;;;4993866;28;20195;-88
2023/01/21 07:18:15;;;;;;;71.13;23.30;;;;;;;;;;4993606;28;20024;-87
2023/01/21 07:20:41;;;;;;;60.57;23.07;;;;;;;;;;4993669;28;20026;-87
2023/01/21 07:23:06;;;;;;;71.00;24.67;;;;;;;;;;5012524;28;20049;-88
2023/01/21 07:25:31;;;;;;;64.73;23.30;;;;;;;;;;4996664;28;20040;-87
2023/01/21 07:27:57;;;;;;;67.60;22.80;;;;;;;;;;5015303;28;20285;-87
2023/01/21 07:30:22;;;;;;;76.17;24.07;;;;;;;;;;4996271;28;20445;-87
2023/01/21 07:32:47;;;;;;;71.07;24.10;;;;;;;;;;4997800;28;20346;-87
2023/01/21 07:35:13;;;;;;;64.97;23.60;;;;;;;;;;5014022;28;20100;-87
2023/01/21 07:37:38;;;;;;;66.17;23.37;;;;;;;;;;4997961;28;20037;-87
2023/01/21 07:40:03;;;;;;;63.37;23.13;;;;;;;;;;4995780;28;20029;-87
2023/01/21 07:42:28;;;;;;;60.30;22.43;;;;;;;;;;4997153;28;20037;-87
2023/01/21 07:44:54;;;;;;;64.83;21.50;;;;;;;;;;5014674;28;20105;-87
2023/01/21 07:47:19;;;;;;;72.47;22.80;;;;;;;;;;4997606;28;20017;-87
2023/01/21 07:49:47;;;;;;;61.63;22.30;;;;;;;;;;4996894;28;20025;-87
2023/01/21 07:52:15;;;;;;;66.20;24.67;;;;;;;;;;4996090;28;20496;-87
2023/01/21 07:54:40;;;;;;;64.00;23.10;;;;;;;;;;4996729;28;20017;-87
2023/01/21 07:57:06;;;;;;;61.57;23.33;;;;;;;;;;4997259;28;20026;-87
2023/01/21 07:59:31;;;;;;;64.83;23.47;;;;;;;;;;4997017;28;20489;-88
2023/01/21 08:01:56;;;;;;;62.27;22.40;;;;;;;;;;4996783;28;20018;-87
2023/01/21 08:04:22;;;;;;;64.93;22.97;;;;;;;;;;5013496;28;20030;-87
2023/01/21 08:06:47;;;;;;;69.13;23.70;;;;;;;;;;4997064;28;20022;-87
2023/01/21 08:09:12;;;;;;;66.63;22.67;;;;;;;;;;5014698;28;20076;-87
2023/01/21 08:11:37;;;;;;;60.87;21.07;;;;;;;;;;4997222;28;20393;-87
2023/01/21 08:14:03;;;;;;;66.47;21.67;;;;;;;;;;4996572;28;20022;-87
2023/01/21 08:16:28;;;;;;;63.77;23.37;;;;;;;;;;4996013;28;20133;-87
2023/01/21 08:18:53;;;;;;;65.73;23.30;;;;;;;;;;4996523;28;20381;-87
2023/01/21 08:21:19;;;;;;;75.80;25.13;;;;;;;;;;4992350;28;20041;-87
2023/01/21 08:23:45;;;;;;;74.03;27.93;;;;;;;;;;5013493;28;20465;-87
2023/01/21 08:26:10;;;;;;;75.07;28.57;;;;;;;;;;4996566;28;20017;-87
2023/01/21 08:28:35;;;;;;;82.17;31.00;;;;;;;;;;4996128;28;20029;-88
2023/01/21 08:31:08;;;;;;;108.63;36.70;;;;;;;;;;4996279;28;20026;-87
2023/01/21 08:33:33;;;;;;;123.63;38.70;;;;;;;;;;4995114;28;20160;-87
2023/01/21 08:35:59;;;;;;;118.53;38.93;;;;;;;;;;5011310;28;20041;-86
2023/01/21 08:38:25;;;;;;;127.87;41.93;;;;;;;;;;4994086;28;20029;-87
2023/01/21 08:40:50;;;;;;;119.07;42.57;;;;;;;;;;4995807;28;20072;-87
2023/01/21 08:43:15;;;;;;;138.07;47.57;;;;;;;;;;4996100;28;20493;-87
2023/01/21 08:45:40;;;;;;;86.93;31.33;;;;;;;;;;4995775;28;20052;-87
2023/01/21 08:48:06;;;;;;;66.27;24.83;;;;;;;;;;5011656;28;20015;-88
2023/01/21 08:50:31;;;;;;;63.30;24.70;;;;;;;;;;4995910;28;20752;-87
2023/01/21 08:52:57;;;;;;;70.77;25.60;;;;;;;;;;5013938;28;20030;-88
2023/01/21 08:55:25;;;;;;;69.90;24.90;;;;;;;;;;5013530;28;20025;-87
2023/01/21 08:57:52;;;;;;;65.33;21.67;;;;;;;;;;5013010;28;20025;-87
2023/01/21 09:00:18;;;;;;;61.10;21.33;;;;;;;;;;4989205;28;20025;-88
2023/01/21 09:02:43;;;;;;;65.03;22.90;;;;;;;;;;4995438;28;20029;-87
2023/01/21 09:05:08;;;;;;;66.10;23.53;;;;;;;;;;5013475;28;20026;-88
2023/01/21 09:07:33;;;;;;;64.37;22.20;;;;;;;;;;4995842;28;20052;-88
2023/01/21 09:09:59;;;;;;;61.07;21.93;;;;;;;;;;5012412;28;20022;-87
2023/01/21 09:12:24;;;;;;;66.53;23.80;;;;;;;;;;5013201;28;20022;-88
2023/01/21 09:14:49;;;;;;;68.80;23.30;;;;;;;;;;4995526;28;20755;-88
2023/01/21 09:17:14;;;;;;;65.77;22.80;;;;;;;;;;5012515;28;20064;-88
2023/01/21 09:19:39;;;;;;;69.53;24.30;;;;;;;;;;4995418;28;20105;-88
2023/01/21 09:22:05;;;;;;;61.80;24.13;;;;;;;;;;5013626;28;20377;-89
2023/01/21 09:24:30;;;;;;;63.63;22.93;;;;;;;;;;5011439;28;20023;-88
2023/01/21 09:26:56;;;;;;;71.40;25.40;;;;;;;;;;4995993;28;20014;-88
2023/01/21 09:29:21;;;;;;;64.27;21.97;;;;;;;;;;4995356;28;20074;-88
2023/01/21 09:31:46;;;;;;;60.43;23.17;;;;;;;;;;5013249;28;20032;-88
2023/01/21 09:34:11;;;;;;;64.93;23.90;;;;;;;;;;5011122;28;20026;-89
2023/01/21 09:36:37;;;;;;;68.40;22.87;;;;;;;;;;5013723;28;20021;-87
2023/01/21 09:39:02;;;;;;;69.10;23.87;;;;;;;;;;4995017;28;20393;-88
2023/01/21 09:41:35;;;;;;;62.63;22.30;;;;;;;;;;4995593;28;20026;-88
2023/01/21 09:44:19;;;;;;;63.03;22.77;;;;;;;;;;4995281;28;20037;-88
2023/01/21 09:46:51;;;;;;;67.77;22.10;;;;;;;;;;4994849;28;20068;-89
2023/01/21 09:49:24;;;;;;;74.07;27.43;;;;;;;;;;4982642;28;20022;-88
2023/01/21 09:51:50;;;;;;;65.97;24.40;;;;;;;;;;4995884;28;20505;-89
2023/01/21 09:54:22;;;;;;;75.13;25.70;;;;;;;;;;4995468;28;20108;-89
2023/01/21 09:56:51;;;;;;;68.20;21.60;;;;;;;;;;5012469;28;20025;-89
2023/01/21 09:59:36;;;;;;;60.33;22.27;;;;;;;;;;4995454;28;20040;-89
2023/01/21 10:02:03;;;;;;;69.90;22.53;;;;;;;;;;4994817;28;20385;-89
2023/01/21 10:04:32;;;;;;;65.17;22.70;;;;;;;;;;4997836;28;20041;-90
2023/01/21 10:07:10;;;;;;;69.87;22.93;;;;;;;;;;4995664;28;20759;-90
2023/01/21 10:09:41;;;;;;;59.80;21.33;;;;;;;;;;4987776;28;20471;-89
2023/01/21 10:12:09;;;;;;;60.17;22.17;;;;;;;;;;5013160;28;20037;-89
2023/01/21 10:14:41;;;;;;;64.00;21.47;;;;;;;;;;4995212;28;20461;-89
2023/01/21 10:17:06;;;;;;;63.93;23.13;;;;;;;;;;4995444;28;20026;-89
2023/01/21 10:19:35;;;;;;;64.97;21.47;;;;;;;;;;5011924;28;20045;-89
2023/01/21 10:22:19;;;;;;;61.73;22.90;;;;;;;;;;5013048;28;20029;-90
2023/01/21 10:24:47;;;;;;;67.00;23.33;;;;;;;;;;4995272;28;20033;-89
2023/01/21 10:27:17;;;;;;;56.70;20.00;;;;;;;;;;4995205;28;20026;-89
2023/01/21 10:29:43;;;;;;;72.30;24.80;;;;;;;;;;5010765;28;20102;-88
2023/01/21 10:32:12;;;;;;;67.67;23.63;;;;;;;;;;4995560;28;20505;-89
2023/01/21 10:34:39;;;;;;;67.87;23.43;;;;;;;;;;5012428;28;20560;-89
2023/01/21 10:37:12;;;;;;;77.70;25.60;;;;;;;;;;5013272;28;20398;-90
2023/01/21 10:39:37;;;;;;;50.90;16.13;;;;;;;;;;4994684;28;20034;-89
2023/01/21 10:42:06;;;;;;;68.53;23.97;;;;;;;;;;4995287;28;20368;-89
2023/01/21 10:44:50;;;;;;;37.53;15.17;;;;;;;;;;4991208;28;20401;-90
2023/01/21 10:47:28;;;;;;;57.33;20.23;;;;;;;;;;5011198;28;20021;-90
2023/01/21 10:50:12;;;;;;;50.43;15.53;;;;;;;;;;4995097;28;20113;-90
2023/01/21 10:52:45;;;;;;;55.60;18.57;;;;;;;;;;4999438;28;20025;-89
2023/01/21 10:55:13;;;;;;;19.40;6.00;;;;;;;;;;4994087;28;20041;-90
2023/01/21 10:57:50;;;;;;;74.17;27.20;;;;;;;;;;4996381;28;20099;-89
2023/01/21 11:00:24;;;;;;;74.10;26.83;;;;;;;;;;4998974;28;20029;-89
2023/01/21 11:02:52;;;;;;;76.83;25.17;;;;;;;;;;4986144;28;20014;-89
2023/01/21 11:05:18;;;;;;;69.37;23.70;;;;;;;;;;4998969;28;20531;-89
2023/01/21 11:07:45;;;;;;;61.50;21.30;;;;;;;;;;5016074;28;20021;-90
2023/01/21 11:10:21;;;;;;;57.37;21.80;;;;;;;;;;4997044;28;20033;-89
2023/01/21 11:12:47;;;;;;;73.43;26.43;;;;;;;;;;4995935;28;20027;-89
2023/01/21 11:15:14;;;;;;;57.23;18.20;;;;;;;;;;5008656;28;20029;-89
2023/01/21 11:17:40;;;;;;;70.87;25.47;;;;;;;;;;4998532;28;20014;-89
2023/01/21 11:20:15;;;;;;;79.80;24.73;;;;;;;;;;4997922;28;20088;-89
2023/01/21 11:22:42;;;;;;;73.80;25.13;;;;;;;;;;4998927;28;20018;-90
2023/01/21 11:25:22;;;;;;;72.17;24.23;;;;;;;;;;5016210;28;20354;-88
2023/01/21 11:27:47;;;;;;;70.53;22.23;;;;;;;;;;5015893;28;20109;-89
2023/01/21 11:30:39;;;;;;;62.20;20.03;;;;;;;;;;5015104;28;20421;-89
2023/01/21 11:33:11;;;;;;;44.37;13.90;;;;;;;;;;5012525;28;20041;-90
2023/01/21 11:35:36;;;;;;;;;;;;;;;;;;5003258;28;20034;-90
2023/01/21 11:38:01;;;;;;;68.33;23.70;;;;;;;;;;5016455;28;20233;-89
2023/01/21 11:40:27;;;;;;;50.83;17.40;;;;;;;;;;5014634;28;20283;-89
2023/01/21 11:42:54;;;;;;;54.17;16.37;;;;;;;;;;4998225;28;20080;-89
2023/01/21 11:45:32;;;;;;;66.13;23.30;;;;;;;;;;4997622;28;20018;-90
2023/01/21 11:47:58;;;;;;;65.23;23.67;;;;;;;;;;5015471;28;20481;-89
2023/01/21 11:50:33;;;;;;;72.90;23.67;;;;;;;;;;4997964;28;20167;-89
2023/01/21 11:53:11;;;;;;;58.47;20.50;;;;;;;;;;4997669;28;20021;-89
2023/01/21 11:55:37;;;;;;;67.63;23.47;;;;;;;;;;5014187;28;20026;-89
2023/01/21 11:58:02;;;;;;;69.23;22.70;;;;;;;;;;4997700;28;20158;-89
2023/01/21 12:00:27;;;;;;;64.37;22.10;;;;;;;;;;5015198;28;20025;-88
2023/01/21 12:03:01;;;;;;;76.63;24.17;;;;;;;;;;4997642;28;20022;-89
2023/01/21 12:05:34;;;;;;;66.20;23.27;;;;;;;;;;5014337;28;20022;-88
2023/01/21 12:08:01;;;;;;;42.67;14.47;;;;;;;;;;4985308;28;20014;-89
2023/01/21 12:10:28;;;;;;;54.50;18.17;;;;;;;;;;4996694;28;20767;-89
2023/01/21 12:13:13;;;;;;;49.83;15.00;;;;;;;;;;4997504;28;20109;-89
2023/01/21 12:15:56;;;;;;;52.43;17.37;;;;;;;;;;5015143;28;20497;-89
2023/01/21 12:18:37;;;;;;;64.83;21.30;;;;;;;;;;5001760;28;20026;-89
2023/01/21 12:21:02;;;;;;;70.77;22.90;;;;;;;;;;4997177;28;20381;-89
2023/01/21 12:23:50;;;;;;;70.63;24.27;;;;;;;;;;5014441;28;20038;-89
2023/01/21 12:26:48;;;;;;;72.80;22.63;;;;;;;;;;4997037;28;20351;-88
2023/01/21 12:29:25;;;;;;;79.63;24.83;;;;;;;;;;4970009;28;20088;-88
2023/01/21 12:32:14;;;;;;;77.13;23.90;;;;;;;;;;5013330;28;20124;-88
2023/01/21 12:34:44;;;;;;;79.43;25.00;;;;;;;;;;5014443;28;20049;-89
2023/01/21 12:37:19;;;;;;;64.40;21.83;;;;;;;;;;5014295;28;20504;-89
2023/01/21 12:39:46;;;;;;;75.20;24.53;;;;;;;;;;5014013;28;20422;-89
2023/01/21 12:42:26;;;;;;;70.47;22.27;;;;;;;;;;5013608;28;20030;-89
2023/01/21 12:44:53;;;;;;;71.40;21.17;;;;;;;;;;5007873;28;20045;-88
2023/01/21 12:47:18;;;;;;;69.83;21.47;;;;;;;;;;5012478;28;20026;-89
2023/01/21 12:49:51;;;;;;;74.40;20.53;;;;;;;;;;5014103;28;20017;-89
2023/01/21 12:52:42;;;;;;;60.57;20.13;;;;;;;;;;4995452;28;20018;-89
2023/01/21 12:55:11;;;;;;;62.80;20.67;;;;;;;;;;4994366;28;20104;-89
2023/01/21 12:57:48;;;;;;;65.43;20.27;;;;;;;;;;4996182;28;20032;-89
2023/01/21 13:00:24;;;;;;;60.17;20.27;;;;;;;;;;5013940;28;20104;-89
2023/01/21 13:03:02;;;;;;;64.53;21.67;;;;;;;;;;4996474;28;20006;-88
2023/01/21 13:05:43;;;;;;;63.00;21.10;;;;;;;;;;4994142;28;20188;-87
2023/01/21 13:08:23;;;;;;;64.57;22.27;;;;;;;;;;5013152;28;20014;-88
2023/01/21 13:11:02;;;;;;;64.43;22.20;;;;;;;;;;4996043;28;20032;-88
2023/01/21 13:13:36;;;;;;;69.57;22.30;;;;;;;;;;5013872;28;20422;-88
2023/01/21 13:16:04;;;;;;;68.40;21.93;;;;;;;;;;5013712;28;20014;-88
2023/01/21 13:18:38;;;;;;;66.63;20.47;;;;;;;;;;4995458;28;20485;-88
2023/01/21 13:21:23;;;;;;;66.83;19.93;;;;;;;;;;4995856;28;20029;-88
2023/01/21 13:23:52;;;;;;;72.77;21.30;;;;;;;;;;4973153;28;20224;-89
2023/01/21 13:26:32;;;;;;;63.00;22.07;;;;;;;;;;5013576;28;20461;-89
2023/01/21 13:29:16;;;;;;;61.83;20.00;;;;;;;;;;4995262;28;20112;-87
2023/01/21 13:31:56;;;;;;;61.73;20.60;;;;;;;;;;4995935;28;20374;-89
2023/01/21 13:34:29;;;;;;;61.73;20.03;;;;;;;;;;5012279;28;20481;-89
2023/01/21 13:36:54;;;;;;;;;;;;;;;;;;5014098;28;20480;-88
2023/01/21 13:39:19;;;;;;;58.35;17.90;;;;;;;;;;5012906;28;19914;-89
2023/01/21 13:41:47;;;;;;;66.17;20.47;;;;;;;;;;4995192;28;20033;-88
2023/01/21 13:44:31;;;;;;;58.93;18.67;;;;;;;;;;4995668;28;20105;-89
2023/01/21 13:47:05;;;;;;;62.20;19.97;;;;;;;;;;5013521;28;20105;-89
2023/01/21 13:49:49;;;;;;;68.57;20.70;;;;;;;;;;4995489;28;20014;-89
2023/01/21 13:52:23;;;;;;;67.57;19.80;;;;;;;;;;4995555;28;20026;-89
2023/01/21 13:55:06;;;;;;;72.70;20.77;;;;;;;;;;5011990;28;20037;-88
2023/01/21 13:57:31;;;;;;;66.37;19.80;;;;;;;;;;4995486;28;20029;-89
2023/01/21 14:00:08;;;;;;;65.87;21.50;;;;;;;;;;4995217;28;20038;-88
2023/01/21 14:02:37;;;;;;;64.00;19.63;;;;;;;;;;5013005;28;20092;-88
2023/01/21 14:05:12;;;;;;;71.57;22.23;;;;;;;;;;5010923;28;20014;-89
2023/01/21 14:07:40;;;;;;;67.97;21.33;;;;;;;;;;5012943;28;20025;-88
2023/01/21 14:10:24;;;;;;;67.87;21.00;;;;;;;;;;4995391;28;20373;-89
2023/01/21 14:12:52;;;;;;;67.10;21.43;;;;;;;;;;5012879;28;20447;-88
2023/01/21 14:15:43;;;;;;;69.90;22.20;;;;;;;;;;5012745;28;20022;-89
2023/01/21 14:18:27;;;;;;;67.73;21.40;;;;;;;;;;5011573;28;20025;-89
2023/01/21 14:21:03;;;;;;;72.70;21.20;;;;;;;;;;4995279;28;20845;-89
2023/01/21 14:23:33;;;;;;;73.23;22.70;;;;;;;;;;5012729;28;20037;-88
2023/01/21 14:25:58;;;;;;;76.17;22.00;;;;;;;;;;5011149;28;20374;-88
2023/01/21 14:28:37;;;;;;;64.97;20.07;;;;;;;;;;5011984;28;20105;-88
2023/01/21 14:31:02;;;;;;;64.90;21.57;;;;;;;;;;5011861;28;20389;-88
2023/01/21 14:33:34;;;;;;;63.90;20.73;;;;;;;;;;4994397;28;20044;-88